createdAt,value
2022-10-18T00:02:04.063Z,102464.47
2022-10-18T00:04:30.684Z,102472.53
2022-10-18T00:06:57.265Z,102470.75
2022-10-18T00:09:23.975Z,102468.03
2022-10-18T00:11:51.553Z,102465.38
2022-10-18T00:14:18.101Z,102475.22
2022-10-18T00:16:44.620Z,102474.31
2022-10-18T00:19:11.344Z,102472.50
2022-10-18T00:21:37.930Z,102473.44
2022-10-18T00:24:04.997Z,102477.88
2022-10-18T00:26:31.840Z,102477.00
2022-10-18T00:29:04.870Z,102473.41
2022-10-18T00:31:33.914Z,102476.13
2022-10-18T00:34:03.244Z,102466.28
2022-10-18T00:36:31.352Z,102471.63
2022-10-18T00:38:58.148Z,102474.31
2022-10-18T00:41:27.074Z,102476.13
2022-10-18T00:43:56.557Z,102475.19
2022-10-18T00:46:24.075Z,102482.38
2022-10-18T00:48:51.924Z,102489.50
2022-10-18T00:51:19.750Z,102486.84
2022-10-18T00:53:46.372Z,102485.94
2022-10-18T00:56:13.518Z,102487.72
2022-10-18T00:58:40.176Z,102478.72
2022-10-18T01:01:06.713Z,102468.03
2022-10-18T01:03:33.333Z,102471.59
2022-10-18T01:05:59.867Z,102478.75
2022-10-18T01:08:43.384Z,102475.16
2022-10-18T01:11:33.600Z,102482.38
2022-10-18T01:14:00.077Z,102475.19
2022-10-18T01:16:35.363Z,102482.41
2022-10-18T01:19:26.772Z,102473.38
2022-10-18T01:22:00.987Z,102484.16
2022-10-18T01:24:41.081Z,102482.41
2022-10-18T01:27:24.158Z,102483.25
2022-10-18T01:30:03.298Z,102485.94
2022-10-18T01:32:40.287Z,102481.44
2022-10-18T01:35:14.455Z,102487.75
2022-10-18T01:37:42.077Z,102484.91
2022-10-18T01:40:09.654Z,102487.66
2022-10-18T01:42:36.270Z,102484.13
2022-10-18T01:45:03.861Z,102490.41
2022-10-18T01:47:31.153Z,102487.63
2022-10-18T01:50:02.976Z,102486.84
2022-10-18T01:52:31.473Z,102482.34
2022-10-18T01:54:59.932Z,102478.69
2022-10-18T01:57:38.391Z,102476.03
2022-10-18T02:00:13.580Z,102479.66
2022-10-18T02:02:57.924Z,102477.00
2022-10-18T02:05:27.451Z,102472.41
2022-10-18T02:08:12.607Z,102473.34
2022-10-18T02:11:15.803Z,102475.09
2022-10-18T02:13:44.265Z,102493.03
2022-10-18T02:16:14.299Z,102499.34
2022-10-18T02:18:44.809Z,102487.66
2022-10-18T02:21:13.616Z,102484.97
2022-10-18T02:23:40.160Z,102488.53
2022-10-18T02:26:06.989Z,102496.59
2022-10-18T02:28:33.566Z,102498.38
2022-10-18T02:31:12.271Z,102497.44
2022-10-18T02:33:41.510Z,102494.75
2022-10-18T02:36:15.533Z,102493.91
2022-10-18T02:38:42.377Z,102491.22
2022-10-18T02:41:08.972Z,102495.72
2022-10-18T02:43:35.579Z,102485.84
2022-10-18T02:46:02.511Z,102484.03
2022-10-18T02:48:29.089Z,102490.25
2022-10-18T02:50:55.620Z,102497.44
2022-10-18T02:53:22.165Z,102498.34
2022-10-18T02:55:48.716Z,102491.22
2022-10-18T02:58:15.263Z,102495.66
2022-10-18T03:00:41.820Z,102500.19
2022-10-18T03:03:08.418Z,102510.88
2022-10-18T03:05:34.936Z,102500.13
2022-10-18T03:08:01.501Z,102505.53
2022-10-18T03:10:28.023Z,102493.88
2022-10-18T03:12:54.541Z,102508.16
2022-10-18T03:15:21.094Z,102501.97
2022-10-18T03:17:47.622Z,102487.59
2022-10-18T03:20:14.217Z,102498.28
2022-10-18T03:22:40.799Z,102490.28
2022-10-18T03:25:07.611Z,102504.59
2022-10-18T03:27:34.368Z,102501.91
2022-10-18T03:30:01.208Z,102504.53
2022-10-18T03:32:27.767Z,102493.84
2022-10-18T03:34:55.016Z,102497.44
2022-10-18T03:37:21.568Z,102494.72
2022-10-18T03:39:48.112Z,102511.72
2022-10-18T03:42:14.724Z,102511.72
2022-10-18T03:44:41.323Z,102515.28
2022-10-18T03:47:07.869Z,102507.22
2022-10-18T03:49:34.696Z,102499.16
2022-10-18T03:52:01.300Z,102492.94
2022-10-18T03:54:27.844Z,102493.84
2022-10-18T03:56:54.400Z,102501.88
2022-10-18T03:59:20.931Z,102503.66
2022-10-18T04:01:47.488Z,102501.81
2022-10-18T04:04:14.396Z,102514.41
2022-10-18T04:06:41.088Z,102516.19
2022-10-18T04:09:09.519Z,102516.13
2022-10-18T04:11:36.892Z,102521.53
2022-10-18T04:14:03.722Z,102528.69
2022-10-18T04:16:30.394Z,102524.25
2022-10-18T04:18:56.971Z,102521.53
2022-10-18T04:21:23.579Z,102523.28
2022-10-18T04:23:50.748Z,102523.28
2022-10-18T04:26:17.436Z,102525.97
2022-10-18T04:28:44.332Z,102534.06
2022-10-18T04:31:11.784Z,102536.72
2022-10-18T04:33:38.731Z,102542.13
2022-10-18T04:36:05.410Z,102531.34
2022-10-18T04:38:31.953Z,102525.09
2022-10-18T04:40:58.528Z,102534.06
2022-10-18T04:43:25.106Z,102534.97
2022-10-18T04:45:51.647Z,102542.97
2022-10-18T04:48:18.744Z,102549.22
2022-10-18T04:50:48.212Z,102553.69
2022-10-18T04:53:15.839Z,102533.16
2022-10-18T04:55:46.216Z,102534.94
2022-10-18T04:58:12.973Z,102530.38
2022-10-18T05:00:40.136Z,102522.38
2022-10-18T05:03:07.476Z,102537.59
2022-10-18T05:05:49.775Z,102535.78
2022-10-18T05:08:20.786Z,102541.13
2022-10-18T05:10:47.319Z,102530.38
2022-10-18T05:13:13.877Z,102519.66
2022-10-18T05:15:40.407Z,102517.00
2022-10-18T05:18:06.988Z,102514.31
2022-10-18T05:20:33.551Z,102514.28
2022-10-18T05:23:00.075Z,102519.66
2022-10-18T05:25:26.697Z,102518.78
2022-10-18T05:27:53.246Z,102534.88
2022-10-18T05:30:20.816Z,102538.44
2022-10-18T05:32:47.379Z,102525.94
2022-10-18T05:35:13.951Z,102523.22
2022-10-18T05:37:40.498Z,102526.78
2022-10-18T05:40:07.831Z,102539.31
2022-10-18T05:42:34.458Z,102535.72
2022-10-18T05:45:01.171Z,102519.63
2022-10-18T05:47:27.754Z,102525.91
2022-10-18T05:49:54.356Z,102537.50
2022-10-18T05:52:20.916Z,102544.69
2022-10-18T05:54:47.440Z,102531.25
2022-10-18T05:57:14.112Z,102521.38
2022-10-18T05:59:40.759Z,102515.94
2022-10-18T06:02:08.620Z,102519.56
2022-10-18T06:04:35.192Z,102535.72
2022-10-18T06:07:01.911Z,102526.75
2022-10-18T06:09:30.610Z,102518.69
2022-10-18T06:11:57.732Z,102539.31
2022-10-18T06:14:24.276Z,102537.47
2022-10-18T06:16:50.895Z,102546.34
2022-10-18T06:19:17.484Z,102559.81
2022-10-18T06:21:44.420Z,102566.97
2022-10-18T06:24:11.020Z,102565.19
2022-10-18T06:26:37.580Z,102562.53
2022-10-18T06:29:04.154Z,102564.31
2022-10-18T06:31:30.782Z,102564.22
2022-10-18T06:34:01.109Z,102567.84
2022-10-18T06:36:27.735Z,102576.78
2022-10-18T06:38:54.620Z,102568.72
2022-10-18T06:41:22.044Z,102572.28
2022-10-18T06:43:53.533Z,102580.34
2022-10-18T06:46:20.097Z,102596.38
2022-10-18T06:48:46.649Z,102595.56
2022-10-18T06:51:13.307Z,102599.94
2022-10-18T06:53:43.934Z,102607.19
2022-10-18T06:56:15.351Z,102602.59
2022-10-18T06:58:41.929Z,102598.19
2022-10-18T07:01:10.697Z,102602.63
2022-10-18T07:03:37.398Z,102597.31
2022-10-18T07:06:05.841Z,102584.78
2022-10-18T07:08:32.781Z,102588.34
2022-10-18T07:10:59.499Z,102597.28
2022-10-18T07:13:33.076Z,102617.91
2022-10-18T07:16:08.660Z,102608.97
2022-10-18T07:18:37.283Z,102603.63
2022-10-18T07:21:05.352Z,102604.47
2022-10-18T07:23:33.985Z,102605.38
2022-10-18T07:26:01.797Z,102621.47
2022-10-18T07:28:28.998Z,102628.56
2022-10-18T07:30:55.753Z,102636.63
2022-10-18T07:33:23.223Z,102628.53
2022-10-18T07:35:49.786Z,102617.81
2022-10-18T07:38:16.329Z,102634.88
2022-10-18T07:40:42.875Z,102634.75
2022-10-18T07:43:12.141Z,102635.69
2022-10-18T07:45:38.995Z,102652.66
2022-10-18T07:48:05.677Z,102646.38
2022-10-18T07:50:32.197Z,102637.50
2022-10-18T07:52:58.766Z,102639.16
2022-10-18T07:55:25.308Z,102653.50
2022-10-18T07:57:51.873Z,102654.41
2022-10-18T08:00:18.561Z,102657.09
2022-10-18T08:02:45.126Z,102666.94
2022-10-18T08:05:11.707Z,102661.53
2022-10-18T08:07:38.383Z,102658.84
2022-10-18T08:10:05.296Z,102666.94
2022-10-18T08:12:32.713Z,102655.22
2022-10-18T08:14:59.258Z,102642.75
2022-10-18T08:17:25.866Z,102664.25
2022-10-18T08:20:11.263Z,102667.81
2022-10-18T08:22:38.993Z,102676.75
2022-10-18T08:25:05.905Z,102670.50
2022-10-18T08:27:32.593Z,102683.09
2022-10-18T08:30:01.687Z,102692.91
2022-10-18T08:32:29.313Z,102687.41
2022-10-18T08:34:56.046Z,102689.28
2022-10-18T08:37:23.251Z,102683.09
2022-10-18T08:39:52.768Z,102690.97
2022-10-18T08:43:10.928Z,102692.84
2022-10-18T08:45:42.986Z,102693.72
2022-10-18T08:48:39.436Z,102698.25
2022-10-18T08:51:15.315Z,102687.53
2022-10-18T08:53:57.517Z,102678.63
2022-10-18T08:56:24.886Z,102683.91
2022-10-18T08:58:51.549Z,102683.84
2022-10-18T09:01:46.164Z,102685.78
2022-10-18T09:04:18.049Z,102689.28
2022-10-18T09:06:56.520Z,102688.53
2022-10-18T09:09:39.888Z,102682.34
2022-10-18T09:12:42.747Z,102682.34
2022-10-18T09:15:26.881Z,102700.34
2022-10-18T09:18:21.445Z,102692.31
2022-10-18T09:20:59.022Z,102700.50
2022-10-18T09:23:47.069Z,102698.75
2022-10-18T09:26:24.215Z,102695.38
2022-10-18T09:29:08.741Z,102694.44
2022-10-18T09:32:04.877Z,102697.25
2022-10-18T09:34:53.584Z,102691.00
2022-10-18T09:37:21.313Z,102708.03
2022-10-18T09:39:49.601Z,102709.88
2022-10-18T09:42:43.560Z,102719.78
2022-10-18T09:45:15.612Z,102720.75
2022-10-18T09:47:47.697Z,102720.72
2022-10-18T09:50:37.876Z,102726.09
2022-10-18T09:53:18.561Z,102726.03
2022-10-18T09:55:52.906Z,102732.31
2022-10-18T09:58:20.716Z,102724.28
2022-10-18T10:00:52.951Z,102733.25
2022-10-18T10:03:19.516Z,102732.34
2022-10-18T10:05:46.212Z,102736.88
2022-10-18T10:08:12.756Z,102738.63
2022-10-18T10:10:41.045Z,102744.00
2022-10-18T10:13:22.957Z,102752.16
2022-10-18T10:15:55.402Z,102745.94
2022-10-18T10:18:35.773Z,102756.72
2022-10-18T10:21:07.825Z,102756.75
2022-10-18T10:23:38.103Z,102759.41
2022-10-18T10:26:07.692Z,102756.72
2022-10-18T10:28:43.782Z,102771.06
2022-10-18T10:31:19.373Z,102762.09
2022-10-18T10:33:47.584Z,102763.84
2022-10-18T10:36:19.600Z,102761.25
2022-10-18T10:38:46.132Z,102765.69
2022-10-18T10:41:22.576Z,102764.81
2022-10-18T10:43:50.385Z,102760.31
2022-10-18T10:46:19.213Z,102760.41
2022-10-18T10:49:21.737Z,102767.59
2022-10-18T10:51:53.717Z,102772.91
2022-10-18T10:54:35.297Z,102774.69
2022-10-18T10:57:20.117Z,102765.69
2022-10-18T10:59:49.173Z,102780.03
2022-10-18T11:02:17.554Z,102779.13
2022-10-18T11:04:45.496Z,102781.81
2022-10-18T11:07:33.931Z,102780.06
2022-10-18T11:10:06.516Z,102773.84
2022-10-18T11:12:35.457Z,102778.31
2022-10-18T11:15:12.236Z,102779.28
2022-10-18T11:18:16.983Z,102792.72
2022-10-18T11:20:53.384Z,102791.84
2022-10-18T11:23:20.720Z,102795.41
2022-10-18T11:26:01.536Z,102789.13
2022-10-18T11:28:48.350Z,102789.13
2022-10-18T11:31:35.364Z,102792.88
2022-10-18T11:34:38.561Z,102778.53
2022-10-18T11:37:31.117Z,102783.97
2022-10-18T11:40:09.538Z,102791.16
2022-10-18T11:42:48.883Z,102789.38
2022-10-18T11:45:38.141Z,102789.41
2022-10-18T11:48:32.528Z,102792.16
2022-10-18T11:51:14.372Z,102787.66
2022-10-18T11:54:01.133Z,102795.75
2022-10-18T11:56:44.426Z,102783.22
2022-10-18T11:59:29.806Z,102776.97
2022-10-18T12:02:11.326Z,102773.34
2022-10-18T12:04:58.307Z,102778.72
2022-10-18T12:07:41.938Z,102783.25
2022-10-18T12:10:10.264Z,102791.31
2022-10-18T12:13:02.211Z,102789.50
2022-10-18T12:15:34.198Z,102791.34
2022-10-18T12:18:05.685Z,102793.13
2022-10-18T12:20:35.289Z,102792.22
2022-10-18T12:23:09.648Z,102796.72
2022-10-18T12:25:39.576Z,102791.34
2022-10-18T12:28:16.710Z,102785.94
2022-10-18T12:30:48.216Z,102782.38
2022-10-18T12:33:28.304Z,102781.47
2022-10-18T12:36:05.805Z,102776.09
2022-10-18T12:38:34.397Z,102781.47
2022-10-18T12:41:01.077Z,102776.09
2022-10-18T12:43:36.781Z,102773.38
2022-10-18T12:46:10.746Z,102770.69
2022-10-18T12:48:45.522Z,102769.81
2022-10-18T12:51:16.944Z,102769.78
2022-10-18T12:54:00.659Z,102775.19
2022-10-18T12:56:30.124Z,102782.38
2022-10-18T12:59:17.590Z,102785.06
2022-10-18T13:01:53.221Z,102770.69
2022-10-18T13:04:29.116Z,102773.38
2022-10-18T13:06:59.337Z,102779.66
2022-10-18T13:09:28.468Z,102776.97
2022-10-18T13:12:02.014Z,102785.94
2022-10-18T13:14:35.448Z,102780.56
2022-10-18T13:17:35.502Z,102784.16
2022-10-18T13:20:34.067Z,102792.25
2022-10-18T13:23:09.540Z,102794.03
2022-10-18T13:25:48.179Z,102787.72
2022-10-18T13:28:42.941Z,102785.97
2022-10-18T13:31:40.565Z,102783.25
2022-10-18T13:34:24.305Z,102784.19
2022-10-18T13:37:05.870Z,102777.88
2022-10-18T13:39:33.239Z,102787.78
2022-10-18T13:42:00.710Z,102778.78
2022-10-18T13:44:43.628Z,102789.56
2022-10-18T13:47:15.653Z,102794.06
2022-10-18T13:49:58.529Z,102794.94
2022-10-18T13:53:10.683Z,102794.03
2022-10-18T13:56:03.549Z,102798.53
2022-10-18T13:59:14.436Z,102801.22
2022-10-18T14:02:07.439Z,102793.13
2022-10-18T14:05:23.055Z,102799.44
2022-10-18T14:07:51.661Z,102800.34
2022-10-18T14:10:43.628Z,102803.94
2022-10-18T14:13:17.977Z,102812.00
2022-10-18T14:15:45.870Z,102812.88
2022-10-18T14:18:19.075Z,102816.47
2022-10-18T14:21:12.351Z,102822.78
2022-10-18T14:23:40.462Z,102824.56
2022-10-18T14:26:09.760Z,102821.88
2022-10-18T14:28:58.511Z,102820.97
2022-10-18T14:31:22.924Z,102822.78
2022-10-18T14:33:57.343Z,102821.84
2022-10-18T14:36:27.604Z,102823.69
2022-10-18T14:38:59.195Z,102827.25
2022-10-18T14:41:30.863Z,102823.63
2022-10-18T14:44:15.704Z,102834.41
2022-10-18T14:46:49.351Z,102843.41
2022-10-18T14:49:16.628Z,102849.69
2022-10-18T14:51:45.094Z,102838.03
2022-10-18T14:56:47.610Z,102836.22
2022-10-18T14:59:52.604Z,102835.31
2022-10-18T15:02:26.680Z,102831.72
2022-10-18T15:04:59.261Z,102834.41
2022-10-18T15:07:28.752Z,102832.63
2022-10-18T15:09:57.220Z,102835.31
2022-10-18T15:12:23.963Z,102832.63
2022-10-18T15:14:51.240Z,102827.22
2022-10-18T15:17:25.412Z,102823.63
2022-10-18T15:20:06.426Z,102825.44
2022-10-18T15:22:33.512Z,102816.47
2022-10-18T15:25:05.712Z,102818.25
2022-10-18T15:27:36.261Z,102832.63
2022-10-18T15:30:17.195Z,102821.84
2022-10-18T15:32:49.705Z,102830.81
2022-10-18T15:35:24.925Z,102827.25
2022-10-18T15:37:53.069Z,102830.81
2022-10-18T15:40:22.588Z,102834.41
2022-10-18T15:42:50.613Z,102824.50
2022-10-18T15:45:27.409Z,102827.19
2022-10-18T15:47:59.916Z,102820.03
2022-10-18T15:50:35.397Z,102826.31
2022-10-18T15:53:25.378Z,102821.81
2022-10-18T15:55:52.781Z,102828.09
2022-10-18T15:58:21.307Z,102817.31
2022-10-18T16:00:48.774Z,102832.59
2022-10-18T16:03:16.492Z,102820.91
2022-10-18T16:05:43.228Z,102815.53
2022-10-18T16:08:21.624Z,102814.66
2022-10-18T16:10:48.239Z,102820.03
2022-10-18T16:13:14.784Z,102820.03
2022-10-18T16:15:41.366Z,102814.66
2022-10-18T16:18:11.849Z,102816.44
2022-10-18T16:20:38.416Z,102812.84
2022-10-18T16:23:14.413Z,102816.44
2022-10-18T16:25:41.023Z,102812.88
2022-10-18T16:28:12.629Z,102820.03
2022-10-18T16:30:39.637Z,102818.25
2022-10-18T16:33:07.525Z,102825.41
2022-10-18T16:35:35.565Z,102823.63
2022-10-18T16:38:02.176Z,102825.44
2022-10-18T16:40:28.826Z,102825.41
2022-10-18T16:42:55.767Z,102822.72
2022-10-18T16:45:29.134Z,102832.59
2022-10-18T16:47:55.527Z,102825.44
2022-10-18T16:50:22.882Z,102838.91
2022-10-18T16:52:49.539Z,102833.50
2022-10-18T16:55:24.927Z,102837.09
2022-10-18T16:57:51.844Z,102847.88
2022-10-18T17:00:21.076Z,102838.91
2022-10-18T17:02:48.456Z,102842.50
2022-10-18T17:05:16.533Z,102839.78
2022-10-18T17:07:43.443Z,102844.28
2022-10-18T17:10:14.844Z,102845.19
2022-10-18T17:12:41.824Z,102859.56
2022-10-18T17:15:08.777Z,102854.13
2022-10-18T17:17:36.029Z,102855.03
2022-10-18T17:20:04.557Z,102848.75
2022-10-18T17:22:31.184Z,102861.28
2022-10-18T17:24:57.752Z,102865.72
2022-10-18T17:27:24.518Z,102872.88
2022-10-18T17:29:51.108Z,102871.97
2022-10-18T17:32:17.648Z,102861.22
2022-10-18T17:34:44.285Z,102866.56
2022-10-18T17:37:10.859Z,102875.53
2022-10-18T17:39:37.513Z,102880.91
2022-10-18T17:42:04.112Z,102879.13
2022-10-18T17:44:30.648Z,102880.00
2022-10-18T17:46:57.238Z,102886.28
2022-10-18T17:49:23.773Z,102880.91
2022-10-18T17:51:50.339Z,102882.69
2022-10-18T17:54:16.940Z,102880.00
2022-10-18T17:56:45.122Z,102877.28
2022-10-18T17:59:11.693Z,102889.88
2022-10-18T18:01:39.305Z,102895.25
2022-10-18T18:04:06.016Z,102895.22
2022-10-18T18:06:34.902Z,102892.47
2022-10-18T18:09:12.635Z,102890.75
2022-10-18T18:11:40.919Z,102892.47
2022-10-18T18:14:10.563Z,102907.78
2022-10-18T18:16:41.580Z,102908.69
2022-10-18T18:19:09.859Z,102905.06
2022-10-18T18:21:37.061Z,102904.16
2022-10-18T18:24:03.838Z,102905.91
2022-10-18T18:26:34.665Z,102906.81
2022-10-18T18:31:38.707Z,102904.16
2022-10-18T18:34:09.953Z,102916.66
2022-10-18T18:36:36.491Z,102905.03
2022-10-18T18:39:05.538Z,102911.31
2022-10-18T18:41:32.263Z,102918.44
2022-10-18T18:44:00.424Z,102913.09
2022-10-18T18:46:29.013Z,102913.09
2022-10-18T18:48:57.550Z,102922.06
2022-10-18T18:51:24.771Z,102924.75
2022-10-18T18:53:51.764Z,102923.81
2022-10-18T18:58:48.465Z,102911.25
2022-10-18T19:01:19.704Z,102910.34
2022-10-18T19:03:48.588Z,102909.47
2022-10-18T19:06:20.700Z,102912.09
2022-10-18T19:08:48.466Z,102908.53
2022-10-18T19:11:20.708Z,102915.69
2022-10-18T19:13:47.727Z,102920.16
2022-10-18T19:16:24.839Z,102911.25
2022-10-18T19:19:02.248Z,102916.59
2022-10-18T19:21:30.997Z,102925.59
2022-10-18T19:23:57.999Z,102921.94
2022-10-18T19:26:32.186Z,102922.00
2022-10-18T19:29:01.619Z,102919.28
2022-10-18T19:31:28.308Z,102921.94
2022-10-18T19:33:59.546Z,102914.78
2022-10-18T19:36:26.457Z,102925.56
2022-10-18T19:38:53.016Z,102923.78
2022-10-18T19:41:19.636Z,102927.41
2022-10-18T19:43:46.226Z,102932.69
2022-10-18T19:46:12.788Z,102933.59
2022-10-18T19:48:39.437Z,102934.50
2022-10-18T19:51:09.404Z,102938.06
2022-10-18T19:53:36.499Z,102930.94
2022-10-18T19:56:04.402Z,102926.41
2022-10-18T19:58:31.509Z,102932.66
2022-10-18T20:00:58.402Z,102932.63
2022-10-18T20:03:25.056Z,102934.50
2022-10-18T20:05:56.479Z,102933.59
2022-10-18T20:08:23.960Z,102933.59
2022-10-18T20:10:50.800Z,102935.34
2022-10-18T20:13:17.588Z,102935.31
2022-10-18T20:15:46.915Z,102939.78
2022-10-18T20:18:13.463Z,102943.38
2022-10-18T20:20:41.603Z,102942.50
2022-10-18T20:23:10.127Z,102947.88
2022-10-18T20:25:36.786Z,102953.22
2022-10-18T20:28:04.281Z,102950.50
2022-10-18T20:30:30.835Z,102945.13
2022-10-18T20:32:57.445Z,102943.25
2022-10-18T20:35:23.981Z,102946.91
2022-10-18T20:37:50.508Z,102946.84
2022-10-18T20:40:17.172Z,102949.63
2022-10-18T20:42:43.737Z,102946.94
2022-10-18T20:45:10.755Z,102937.06
2022-10-18T20:47:37.310Z,102938.00
2022-10-18T20:50:04.100Z,102941.66
2022-10-18T20:52:30.640Z,102946.09
2022-10-18T20:57:23.540Z,102933.59
2022-10-18T20:59:50.152Z,102940.72
2022-10-18T21:02:16.717Z,102945.19
2022-10-18T21:04:43.272Z,102941.53
2022-10-18T21:07:09.813Z,102954.09
2022-10-18T21:09:36.356Z,102955.84
2022-10-18T21:12:02.918Z,102944.22
2022-10-18T21:14:29.515Z,102947.78
2022-10-18T21:16:56.052Z,102940.59
2022-10-18T21:19:26.740Z,102941.53
2022-10-18T21:21:55.465Z,102952.28
2022-10-18T21:24:23.314Z,102941.53
2022-10-18T21:26:49.971Z,102941.47
2022-10-18T21:29:21.557Z,102937.91
2022-10-18T21:31:48.966Z,102930.72
2022-10-18T21:34:17.416Z,102926.19
2022-10-18T21:36:45.196Z,102928.91
2022-10-18T21:39:17.432Z,102932.53
2022-10-18T21:41:44.217Z,102924.41
2022-10-18T21:44:11.635Z,102932.41
2022-10-18T21:46:39.468Z,102933.31
2022-10-18T21:49:07.213Z,102925.25
2022-10-18T21:51:33.875Z,102932.41
2022-10-18T21:54:00.456Z,102934.16
2022-10-18T21:56:32.056Z,102935.16
2022-10-18T21:58:59.248Z,102943.16
2022-10-18T22:01:34.240Z,102938.72
2022-10-18T22:04:03.030Z,102928.78
2022-10-18T22:06:32.563Z,102937.72
2022-10-18T22:09:01.867Z,102939.47
2022-10-18T22:11:31.800Z,102939.44
2022-10-18T22:13:58.361Z,102938.66
2022-10-18T22:16:25.179Z,102937.72
2022-10-18T22:18:52.404Z,102932.34
2022-10-18T22:21:20.346Z,102933.19
2022-10-18T22:23:49.606Z,102931.38
2022-10-18T22:26:18.968Z,102929.66
2022-10-18T22:28:46.262Z,102935.81
2022-10-18T22:31:17.815Z,102934.13
2022-10-18T22:33:45.170Z,102934.97
2022-10-18T22:36:12.136Z,102926.88
2022-10-18T22:38:38.784Z,102926.97
2022-10-18T22:41:09.684Z,102917.88
2022-10-18T22:43:36.692Z,102921.44
2022-10-18T22:46:08.085Z,102914.38
2022-10-18T22:48:34.922Z,102910.75
2022-10-18T22:51:01.973Z,102909.88
2022-10-18T22:53:28.744Z,102915.25
2022-10-18T22:55:55.294Z,102914.25
2022-10-18T22:58:22.328Z,102912.50
2022-10-18T23:00:49.168Z,102902.69
2022-10-18T23:03:17.412Z,102915.19
2022-10-18T23:05:45.402Z,102920.53
2022-10-18T23:08:13.272Z,102914.25
2022-10-18T23:10:43.212Z,102910.69
2022-10-18T23:13:10.784Z,102914.16
2022-10-18T23:15:39.101Z,102913.38
2022-10-18T23:18:05.729Z,102916.06
2022-10-18T23:20:32.319Z,102918.81
2022-10-18T23:22:58.856Z,102920.56
2022-10-18T23:25:25.457Z,102921.44
2022-10-18T23:27:52.018Z,102917.88
2022-10-18T23:30:18.606Z,102913.38
2022-10-18T23:32:45.157Z,102919.66
2022-10-18T23:35:11.688Z,102908.84
2022-10-18T23:37:38.219Z,102914.25
2022-10-18T23:40:05.136Z,102918.59
2022-10-18T23:42:31.692Z,102919.56
2022-10-18T23:44:58.228Z,102921.34
2022-10-18T23:47:24.785Z,102921.44
2022-10-18T23:49:51.353Z,102916.03
2022-10-18T23:52:18.083Z,102918.66
2022-10-18T23:57:16.052Z,102917.78
2022-10-18T23:59:42.601Z,102921.28
